Latest Weather Observations for Leigh Creek

IDS60801

Issued at 1:31 pm CST Wednesday 24 August 2016 (issued every 30 minutes, with the page automatically refreshed every 10 minutes)

About weather observations | Map of weather stations | Latest weather observations for SA | Other Formats
Station Details ID: 017110 Name: LEIGH CREEK AIRPORT Lat: -30.60 Lon: 138.42 Height: 258.8 m
Data from the previous 72 hours. | See also: Recent months at Leigh Creek
Date/Time
CST
Temp
°C
App
Temp
°C
Dew
Point
°C
Rel
Hum
%
Delta-T
°C
Wind Press
QNH
hPa
Press
MSL
hPa
Rain since
9am
mm
Dir  Spd
km/h
Gust
km/h
Spd
kts
Gust
kts
24/01:30pm 17.2 11.7 0.4 32 7.4 SSW 19 28 10 15 1014.0 1013.9 0.0
24/01:00pm 16.9 11.7 0.1 32 7.3 SW 17 26 9 14 1014.4 1014.4 0.0
24/12:30pm 16.7 11.5 0.4 33 7.1 SW 17 28 9 15 1014.9 1014.9 0.0
24/12:00pm 15.9 12.5 1.6 38 6.4 WSW 9 22 5 12 1015.1 1015.1 0.0
24/11:30am 16.0 11.5 2.1 39 6.3 SW 15 26 8 14 1015.3 1015.3 0.0
24/11:00am 15.5 11.5 3.0 43 5.7 WSW 13 19 7 10 1015.6 1015.6 0.0
24/10:30am 15.2 11.2 2.7 43 5.7 W 13 19 7 10 1015.8 1015.8 0.0
24/10:00am 14.3 11.8 3.7 49 4.9 W 6 13 3 7 1015.9 1015.9 0.0
24/09:30am 13.2 11.5 3.8 53 4.3 ESE 2 7 1 4 1016.0 1016.0 0.0
24/09:00am 12.6 10.4 5.1 60 3.5 ESE 6 9 3 5 1016.1 1016.1 0.0
24/08:30am 10.7 9.0 5.7 71 2.3 ESE 4 7 2 4 1016.0 1016.0 0.0
24/08:00am 8.5 6.2 4.9 78 1.6 ESE 6 9 3 5 1015.9 1015.9 0.0
24/07:30am 6.3 5.1 4.5 88 0.8 CALM 0 0 0 0 1015.7 1015.7 0.0
24/07:00am 5.4 4.0 3.4 87 0.8 CALM 0 0 0 0 1015.5 1015.5 0.0
24/06:30am 6.1 3.6 3.9 86 0.9 SE 6 9 3 5 1015.0 1015.0 0.0
24/06:00am 6.5 4.3 3.5 81 1.3 SSE 4 7 2 4 1014.6 1014.6 0.0
24/05:30am 6.4 5.0 3.6 82 1.2 CALM 0 0 0 0 1014.1 1014.1 0.0
24/05:00am 7.2 5.8 3.8 79 1.5 CALM 0 0 0 0 1014.0 1013.9 0.0
24/04:30am 7.7 5.2 4.5 80 1.4 E 7 15 4 8 1013.9 1013.8 0.0
24/04:00am 8.2 5.0 5.0 80 1.4 E 11 11 6 6 1013.9 1013.8 0.0
24/03:30am 8.1 4.8 4.7 79 1.5 E 11 13 6 7 1013.9 1013.8 0.0
24/03:00am 8.2 6.9 4.0 75 1.9 CALM 0 0 0 0 1013.7 1013.6 0.0
24/02:30am 8.2 6.9 4.0 75 1.9 CALM 0 0 0 0 1013.9 1013.8 0.0
24/02:00am 7.6 5.1 3.5 75 1.8 ESE 6 9 3 5 1014.2 1014.2 0.0
24/01:30am 8.0 6.2 3.5 73 2.0 ESE 2 9 1 5 1014.0 1013.9 0.0
24/01:00am 8.3 6.1 3.6 72 2.1 ESE 4 11 2 6 1014.1 1014.1 0.0
24/12:30am 8.3 5.9 4.1 75 1.9 S 6 9 3 5 1014.3 1014.3 0.0
24/12:00am 9.3 7.9 3.7 68 2.5 CALM 0 0 0 0 1014.3 1014.3 0.0
 
Date/Time
CST
Temp
°C
App
Temp
°C
Dew
Point
°C
Rel
Hum
%
Delta-T
°C
Wind Press
QNH
hPa
Press
MSL
hPa
Rain since
9am
mm
Dir  Spd
km/h
Gust
km/h
Spd
kts
Gust
kts
23/11:30pm 9.2 7.9 4.2 71 2.2 CALM 0 0 0 0 1014.6 1014.6 0.0
23/11:00pm 9.5 8.1 3.7 67 2.6 CALM 0 0 0 0 1014.6 1014.6 0.0
23/10:30pm 9.8 8.4 3.5 65 2.8 CALM 0 0 0 0 1014.7 1014.7 0.0
23/10:00pm 8.9 5.7 3.3 68 2.4 S 9 11 5 6 1014.7 1014.7 0.0
23/09:30pm 10.0 8.5 3.1 62 3.0 CALM 0 0 0 0 1014.6 1014.6 0.0
23/09:00pm 10.0 8.1 3.1 62 3.0 ESE 2 6 1 3 1014.6 1014.6 0.0
23/08:30pm 10.3 7.7 3.1 61 3.2 ESE 6 7 3 4 1014.7 1014.7 0.0
23/08:00pm 11.1 8.3 2.9 57 3.6 ESE 7 9 4 5 1014.4 1014.4 0.0
23/07:30pm 11.8 8.1 2.5 53 4.1 ESE 11 13 6 7 1014.0 1013.9 0.0
23/07:00pm 12.4 7.9 2.0 49 4.5 E 15 17 8 9 1013.5 1013.4 0.0
23/06:30pm 13.0 8.8 1.7 46 4.9 E 13 15 7 8 1013.6 1013.5 0.0
23/06:00pm 13.7 8.3 1.0 42 5.5 ESE 19 24 10 13 1013.3 1013.2 0.0
23/05:30pm 14.3 8.1 -0.2 37 6.1 ESE 22 28 12 15 1013.2 1013.1 0.0
23/05:00pm 14.8 7.4 -0.5 35 6.5 E 28 32 15 17 1012.9 1012.8 0.0
23/04:30pm 15.1 8.5 -0.2 35 6.5 E 24 30 13 16 1012.8 1012.7 0.0
23/04:00pm 15.6 9.0 -0.6 33 6.9 E 24 33 13 18 1012.7 1012.6 0.0
23/03:30pm 15.9 8.6 -0.3 33 7.0 E 28 32 15 17 1012.6 1012.5 0.0
23/03:00pm 16.5 10.2 -0.7 31 7.4 ESE 22 32 12 17 1012.5 1012.4 0.0
23/02:30pm 16.7 11.4 -0.5 31 7.4 E 17 30 9 16 1012.8 1012.7 0.0
23/02:00pm 16.8 11.6 0.0 32 7.3 E 17 28 9 15 1012.9 1012.8 0.0
23/01:30pm 16.6 10.9 -0.6 31 7.4 SE 19 32 10 17 1013.2 1013.1 0.0
23/01:00pm 17.4 10.6 1.0 33 7.3 ESE 26 39 14 21 1013.6 1013.5 0.0
23/12:30pm 16.9 10.6 1.4 35 7.0 ENE 24 33 13 18 1014.2 1014.2 0.0
23/12:00pm 16.1 10.0 2.9 41 6.1 E 24 35 13 19 1014.5 1014.5 0.0
23/11:30am 16.0 10.3 3.1 42 6.0 ESE 22 32 12 17 1014.9 1014.9 0.0
23/11:00am 15.4 9.0 3.2 44 5.6 E 26 33 14 18 1015.3 1015.3 0.0
23/10:30am 14.5 8.1 3.3 47 5.1 ESE 26 35 14 19 1015.5 1015.5 0.0
23/10:00am 13.9 8.7 3.4 49 4.8 ESE 20 30 11 16 1015.6 1015.6 0.0
23/09:30am 12.1 8.3 4.1 58 3.7 SSW 13 19 7 10 1015.9 1015.9 0.0
23/09:00am 10.9 7.7 5.0 67 2.7 S 11 17 6 9 1015.6 1015.6 0.2
23/08:30am 9.1 6.8 5.8 80 1.5 SSE 7 9 4 5 1015.5 1015.5 0.2
23/08:00am 6.9 4.3 4.4 84 1.1 SE 7 9 4 5 1015.2 1015.2 0.2
23/07:30am 5.8 3.1 3.6 86 0.9 ESE 7 9 4 5 1015.4 1015.4 0.2
23/07:00am 4.5 2.6 2.7 88 0.7 ESE 2 9 1 5 1015.8 1015.8 0.2
23/06:30am 5.3 2.1 2.8 84 1.0 E 9 13 5 7 1015.2 1015.2 0.2
23/06:00am 6.2 3.6 3.4 82 1.2 E 6 7 3 4 1015.2 1015.2 0.2
23/05:30am 4.4 1.7 2.4 87 0.8 E 6 9 3 5 1015.0 1015.0 0.2
23/05:00am 5.5 3.6 2.8 83 1.1 E 2 6 1 3 1014.2 1014.2 0.2
23/04:30am 5.5 2.6 2.8 83 1.1 E 7 9 4 5 1013.5 1013.4 0.2
23/04:00am 5.9 4.2 4.2 89 0.7 E 2 6 1 3 1013.3 1013.2 0.2
23/03:30am 4.8 2.6 3.6 92 0.5 E 4 7 2 4 1013.3 1013.2 0.2
23/03:00am 5.0 3.2 3.5 90 0.6 E 2 7 1 4 1013.7 1013.6 0.2
23/02:30am 5.3 2.7 3.3 87 0.8 E 6 7 3 4 1014.1 1014.1 0.2
23/02:00am 6.3 2.5 4.1 86 1.0 E 13 15 7 8 1014.2 1014.2 0.2
23/01:30am 7.0 2.6 4.7 85 1.0 ESE 17 19 9 10 1014.4 1014.4 0.2
23/01:00am 6.2 3.8 4.2 87 0.9 ESE 6 9 3 5 1014.6 1014.6 0.2
23/12:30am 7.0 4.5 4.5 84 1.1 SE 7 9 4 5 1014.7 1014.7 0.2
23/12:00am 6.4 5.1 3.9 84 1.1 CALM 0 6 0 3 1014.8 1014.8 0.2
 
Date/Time
CST
Temp
°C
App
Temp
°C
Dew
Point
°C
Rel
Hum
%
Delta-T
°C
Wind Press
QNH
hPa
Press
MSL
hPa
Rain since
9am
mm
Dir  Spd
km/h
Gust
km/h
Spd
kts
Gust
kts
22/11:30pm 7.2 5.9 4.3 82 1.3 CALM 0 2 0 1 1015.0 1015.0 0.2
22/11:00pm 7.5 5.9 4.6 82 1.3 SE 2 6 1 3 1015.0 1015.0 0.2
22/10:30pm 7.7 5.8 5.0 83 1.2 SE 4 7 2 4 1015.0 1015.0 0.2
22/10:00pm 8.1 4.9 4.9 80 1.4 SE 11 13 6 7 1014.9 1014.9 0.2
22/09:30pm 8.3 4.7 5.1 80 1.4 ESE 13 15 7 8 1014.8 1014.8 0.2
22/09:00pm 9.0 5.8 5.0 76 1.8 ESE 11 15 6 8 1014.6 1014.6 0.2
22/08:30pm 9.2 5.5 4.4 72 2.2 ESE 13 15 7 8 1014.4 1014.4 0.2
22/08:00pm 9.9 6.5 4.1 67 2.6 ESE 11 13 6 7 1014.2 1014.2 0.2
22/07:30pm 11.0 6.5 4.2 63 3.1 E 17 17 9 9 1014.0 1013.9 0.2
22/07:00pm 11.5 7.7 4.0 60 3.4 E 13 13 7 7 1013.8 1013.7 0.2
22/06:30pm 12.1 8.2 3.6 56 3.8 ESE 13 17 7 9 1013.4 1013.3 0.2
22/06:00pm 13.7 10.0 2.3 46 5.1 ESE 11 11 6 6 1013.1 1013.0 0.2
22/05:30pm 14.8 10.7 2.0 42 5.7 ESE 13 15 7 8 1012.9 1012.8 0.2
22/05:00pm 15.5 11.7 1.6 39 6.2 ESE 11 17 6 9 1012.6 1012.5 0.2
22/04:30pm 16.5 12.2 1.0 35 6.9 SE 13 19 7 10 1012.2 1012.2 0.2
22/04:00pm 16.5 13.1 1.8 37 6.6 SE 9 15 5 8 1012.0 1012.0 0.2
22/03:30pm 17.0 12.6 0.6 33 7.3 SSE 13 20 7 11 1012.1 1012.1 0.2
22/03:00pm 16.9 13.5 1.8 36 6.8 SE 9 20 5 11 1011.9 1011.9 0.2
22/02:30pm 16.9 14.2 2.9 39 6.5 SSE 6 11 3 6 1012.0 1012.0 0.2
22/02:00pm 16.7 12.6 2.3 38 6.6 ESE 13 24 7 13 1012.1 1012.1 0.2
22/01:30pm 16.1 12.8 2.5 40 6.2 ESE 9 17 5 9 1012.3 1012.3 0.2
22/01:00pm 16.2 12.3 3.6 43 5.9 ESE 13 22 7 12 1012.6 1012.5 0.2
22/12:30pm 15.0 11.2 3.8 47 5.2 ESE 13 22 7 12 1013.0 1012.9 0.2
22/12:00pm 15.3 11.6 4.7 49 5.0 SE 13 19 7 10 1013.0 1012.9 0.2
22/11:30am 14.6 11.5 5.7 55 4.3 SE 11 19 6 10 1013.2 1013.1 0.0
22/11:00am 13.9 10.7 6.7 62 3.5 SE 13 20 7 11 1013.4 1013.3 0.0
22/10:30am 12.8 9.9 6.4 65 3.1 SE 11 19 6 10 1013.7 1013.6 0.0
22/10:00am 12.1 9.2 6.4 68 2.7 SSE 11 15 6 8 1013.9 1013.8 0.0
22/09:30am 11.4 9.1 7.3 76 2.0 SE 9 15 5 8 1013.7 1013.6 0.0
22/09:00am 10.0 7.7 7.3 83 1.3 SSE 9 13 5 7 1013.6 1013.5 2.4
22/08:30am 8.9 7.2 7.5 91 0.7 SE 6 11 3 6 1013.7 1013.6 2.4
22/08:00am 8.1 6.5 8.0 99 0.0 SE 6 9 3 5 1013.5 1013.4 2.4
22/07:30am 6.2 3.6 6.1 99 0.0 SE 9 9 5 5 1013.2 1013.1 2.4
22/07:00am 4.7 3.5 4.6 99 0.0 CALM 0 9 0 5 1013.0 1012.9 2.4
22/06:30am 5.7 3.6 5.6 99 0.0 SE 6 7 3 4 1012.8 1012.7 2.4
22/06:00am 5.2 3.7 5.1 99 0.0 SE 2 6 1 3 1012.6 1012.5 2.4
22/05:30am 5.9 3.2 5.8 99 0.0 ESE 9 11 5 6 1012.1 1012.1 2.4
22/05:00am 6.7 4.5 6.4 98 0.1 ENE 7 7 4 4 1012.1 1012.1 2.4
22/04:30am 6.8 4.3 6.4 97 0.2 ENE 9 9 5 5 1011.9 1011.9 2.4
22/04:00am 7.4 5.3 6.7 95 0.3 ENE 7 9 4 5 1012.0 1012.0 2.4
22/03:30am 7.9 5.5 7.1 95 0.4 ENE 9 9 5 5 1012.2 1012.2 2.4
22/03:00am 8.2 6.5 7.4 95 0.4 ENE 6 7 3 4 1012.3 1012.3 2.4
22/02:30am 7.9 7.3 7.3 96 0.3 CALM 0 0 0 0 1012.6 1012.5 2.4
22/02:00am 8.3 6.6 7.5 95 0.4 ESE 6 7 3 4 1012.8 1012.7 2.4
22/01:30am 8.9 7.0 7.4 90 0.7 ESE 7 9 4 5 1013.0 1012.9 2.4
22/01:00am 9.0 7.1 7.5 90 0.7 ESE 7 9 4 5 1013.3 1013.2 2.4
22/12:30am 9.1 6.2 8.0 93 0.5 ENE 13 17 7 9 1013.7 1013.6 2.4
22/12:00am 9.3 7.7 7.9 91 0.7 ESE 6 9 3 5 1013.9 1013.8 2.4
 
Date/Time
CST
Temp
°C
App
Temp
°C
Dew
Point
°C
Rel
Hum
%
Delta-T
°C
Wind Press
QNH
hPa
Press
MSL
hPa
Rain since
9am
mm
Dir  Spd
km/h
Gust
km/h
Spd
kts
Gust
kts
21/11:30pm 8.9 6.7 7.8 93 0.5 SE 9 11 5 6 1014.1 1014.1 2.4
21/11:00pm 8.8 7.0 7.9 94 0.4 SE 7 9 4 5 1014.1 1014.1 2.2
21/10:30pm 8.9 6.7 7.7 92 0.6 ESE 9 11 5 6 1014.4 1014.4 2.2
21/10:00pm 8.7 6.8 7.5 92 0.6 ENE 7 11 4 6 1014.7 1014.7 2.0
21/09:30pm 9.1 6.4 7.5 90 0.8 E 11 13 6 7 1014.9 1014.9 0.8
21/09:00pm 9.1 5.7 7.5 90 0.8 E 15 17 8 9 1014.9 1014.9 0.6
21/08:30pm 9.2 6.9 7.3 88 0.9 ENE 9 13 5 7 1014.8 1014.8 0.4
21/08:00pm 9.6 5.9 6.5 81 1.5 ENE 15 19 8 10 1014.6 1014.6 0.0
21/07:30pm 9.9 6.5 5.7 75 2.0 ENE 13 20 7 11 1014.3 1014.3 0.0
21/07:00pm 9.8 6.2 5.2 73 2.1 NE 13 19 7 10 1014.2 1014.2 0.0
21/06:30pm 9.7 5.8 5.3 74 2.0 NNE 15 19 8 10 1014.2 1014.2 0.0
21/06:00pm 9.8 6.0 5.6 75 1.9 N 15 20 8 11 1014.3 1014.3 0.0
21/05:30pm 9.9 4.6 5.1 72 2.2 N 22 30 12 16 1014.3 1014.3 0.0
21/05:00pm 10.5 4.0 4.6 67 2.7 N 28 33 15 18 1013.9 1013.8 0.0
21/04:30pm 11.4 4.3 3.7 59 3.5 N 30 39 16 21 1014.1 1014.1 0.0
21/04:00pm 12.7 4.9 1.7 47 4.8 N 32 41 17 22 1014.1 1014.1 0.0
21/03:30pm 14.0 6.3 -0.1 38 6.0 N 30 41 16 22 1014.3 1014.3 0.0
21/03:00pm 14.6 7.6 -0.7 35 6.4 N 26 33 14 18 1014.1 1014.1 0.0
21/02:30pm 14.8 8.9 -0.9 34 6.6 N 20 28 11 15 1014.4 1014.4 0.0
21/02:00pm 14.4 8.1 -0.8 35 6.4 NNE 22 30 12 16 1014.1 1014.1 0.0

Other Formats:

Comma delimited format used in spreadsheet applications
http://www.bom.gov.au/fwo/IDS60801/IDS60801.94674.axf

JavaScript Object Notation format (JSON) in row-major order
http://www.bom.gov.au/fwo/IDS60801/IDS60801.94674.json